createdAt,value
2019-03-20T00:00:20.360Z,2.10
2019-03-20T00:01:20.343Z,2.00
2019-03-20T00:02:20.366Z,1.70
2019-03-20T00:03:20.368Z,2.10
2019-03-20T00:04:20.353Z,1.70
2019-03-20T00:05:20.310Z,2.10
2019-03-20T00:06:20.284Z,1.80
2019-03-20T00:07:20.271Z,2.10
2019-03-20T00:08:20.281Z,2.10
2019-03-20T00:09:20.284Z,1.80
2019-03-20T00:10:20.356Z,1.80
2019-03-20T00:11:20.239Z,1.70
2019-03-20T00:12:20.247Z,2.00
2019-03-20T00:13:20.213Z,1.80
2019-03-20T00:14:20.215Z,2.20
2019-03-20T00:15:20.204Z,1.70
2019-03-20T00:16:20.198Z,2.00
2019-03-20T00:17:20.182Z,1.60
2019-03-20T00:18:20.166Z,1.80
2019-03-20T00:19:20.150Z,1.40
2019-03-20T00:20:20.215Z,1.70
2019-03-20T00:21:20.159Z,2.00
2019-03-20T00:22:20.136Z,1.80
2019-03-20T00:23:20.146Z,1.90
2019-03-20T00:24:20.096Z,1.60
2019-03-20T00:25:20.087Z,2.10
2019-03-20T00:26:20.079Z,2.00
2019-03-20T00:27:20.083Z,2.20
2019-03-20T00:28:20.089Z,2.20
2019-03-20T00:29:20.060Z,1.90
2019-03-20T00:30:20.038Z,2.00
2019-03-20T00:31:20.028Z,2.00
2019-03-20T00:32:20.016Z,2.50
2019-03-20T00:33:20.023Z,1.70
2019-03-20T00:34:20.015Z,1.80
2019-03-20T00:35:19.991Z,1.80
2019-03-20T00:36:19.977Z,1.80
2019-03-20T00:37:19.968Z,2.10
2019-03-20T00:38:19.954Z,1.70
2019-03-20T00:39:19.954Z,2.20
2019-03-20T00:40:20.035Z,1.70
2019-03-20T00:41:19.925Z,1.90
2019-03-20T00:42:19.926Z,2.30
2019-03-20T00:43:19.912Z,1.90
2019-03-20T00:44:19.899Z,2.20
2019-03-20T00:45:19.883Z,1.80
2019-03-20T00:46:19.902Z,2.10
2019-03-20T00:47:19.872Z,1.40
2019-03-20T00:48:19.857Z,2.00
2019-03-20T00:49:19.870Z,1.50
2019-03-20T00:50:19.840Z,2.30
2019-03-20T00:51:19.816Z,2.10
2019-03-20T00:52:19.835Z,2.00
2019-03-20T00:53:19.803Z,1.80
2019-03-20T00:54:19.790Z,2.30
2019-03-20T00:55:19.796Z,1.60
2019-03-20T00:56:19.770Z,1.90
2019-03-20T00:57:19.759Z,1.90
2019-03-20T00:58:19.777Z,1.60
2019-03-20T00:59:19.803Z,1.90
2019-03-20T01:00:19.746Z,2.20
2019-03-20T01:01:19.727Z,1.70
2019-03-20T01:02:19.724Z,1.90
2019-03-20T01:03:19.695Z,1.60
2019-03-20T01:04:19.721Z,2.00
2019-03-20T01:05:19.679Z,1.90
2019-03-20T01:06:19.663Z,2.00
2019-03-20T01:07:19.657Z,2.30
2019-03-20T01:08:19.664Z,1.90
2019-03-20T01:09:19.657Z,1.80
2019-03-20T01:10:19.732Z,1.50
2019-03-20T01:11:19.631Z,2.50
2019-03-20T01:12:19.632Z,1.60
2019-03-20T01:13:19.628Z,1.80
2019-03-20T01:14:19.590Z,1.90
2019-03-20T01:15:19.576Z,2.60
2019-03-20T01:16:19.580Z,1.80
2019-03-20T01:17:19.555Z,1.60
2019-03-20T01:18:19.554Z,2.10
2019-03-20T01:19:19.542Z,2.00
2019-03-20T01:20:19.545Z,2.30
2019-03-20T01:21:19.512Z,1.70
2019-03-20T01:22:19.538Z,2.70
2019-03-20T01:23:19.500Z,2.00
2019-03-20T01:24:19.499Z,1.80
2019-03-20T01:25:19.471Z,2.20
2019-03-20T01:26:19.461Z,1.90
2019-03-20T01:27:19.461Z,1.80
2019-03-20T01:28:19.486Z,1.90
2019-03-20T01:29:19.429Z,1.70
2019-03-20T01:30:19.454Z,1.30
2019-03-20T01:31:19.416Z,1.80
2019-03-20T01:32:19.416Z,2.10
2019-03-20T01:33:19.387Z,1.50
2019-03-20T01:34:19.404Z,1.80
2019-03-20T01:35:23.799Z,2.10
2019-03-20T01:36:19.372Z,1.90
2019-03-20T01:37:19.355Z,1.70
2019-03-20T01:38:19.365Z,2.10
2019-03-20T01:39:19.325Z,1.60
2019-03-20T01:40:19.351Z,2.10
2019-03-20T01:41:19.329Z,1.50
2019-03-20T01:42:19.297Z,1.70
2019-03-20T01:43:19.316Z,1.90
2019-03-20T01:44:19.296Z,2.40
2019-03-20T01:45:19.265Z,1.80
2019-03-20T01:46:19.385Z,1.60
2019-03-20T01:47:19.249Z,1.70
2019-03-20T01:48:19.235Z,2.10
2019-03-20T01:49:19.220Z,1.60
2019-03-20T01:50:19.216Z,2.10
2019-03-20T01:51:19.210Z,1.90
2019-03-20T01:52:19.233Z,1.70
2019-03-20T01:53:19.220Z,1.70
2019-03-20T01:54:19.179Z,2.10
2019-03-20T01:55:19.176Z,2.30
2019-03-20T01:56:19.156Z,1.80
2019-03-20T01:57:19.159Z,2.10
2019-03-20T01:58:19.167Z,2.20
2019-03-20T01:59:19.137Z,2.20
2019-03-20T02:00:19.110Z,2.10
2019-03-20T02:01:19.110Z,2.10
2019-03-20T02:02:19.111Z,2.00
2019-03-20T02:03:19.107Z,1.90
2019-03-20T02:04:19.078Z,2.00
2019-03-20T02:05:19.062Z,1.70
2019-03-20T02:06:19.275Z,1.90
2019-03-20T02:07:19.034Z,1.90
2019-03-20T02:08:19.061Z,1.70
2019-03-20T02:09:19.028Z,1.50
2019-03-20T02:10:19.021Z,2.20
2019-03-20T02:11:18.992Z,2.10
2019-03-20T02:12:18.993Z,1.90
2019-03-20T02:13:19.123Z,1.70
2019-03-20T02:14:18.975Z,1.70
2019-03-20T02:15:19.042Z,2.10
2019-03-20T02:16:18.986Z,1.70
2019-03-20T02:17:18.938Z,1.70
2019-03-20T02:18:18.920Z,1.40
2019-03-20T02:19:18.921Z,1.90
2019-03-20T02:20:18.967Z,2.10
2019-03-20T02:21:18.934Z,1.60
2019-03-20T02:22:18.908Z,2.20
2019-03-20T02:23:18.873Z,2.00
2019-03-20T02:24:18.864Z,1.70
2019-03-20T02:25:18.869Z,1.90
2019-03-20T02:26:18.848Z,2.60
2019-03-20T02:27:18.836Z,1.70
2019-03-20T02:28:18.832Z,1.40
2019-03-20T02:29:18.810Z,2.10
2019-03-20T02:30:18.805Z,1.40
2019-03-20T02:31:18.803Z,2.30
2019-03-20T02:32:18.786Z,1.50
2019-03-20T02:33:18.774Z,1.90
2019-03-20T02:34:18.784Z,1.90
2019-03-20T02:35:18.770Z,1.80
2019-03-20T02:36:18.740Z,1.90
2019-03-20T02:37:18.759Z,2.10
2019-03-20T02:38:18.721Z,2.20
2019-03-20T02:39:18.710Z,1.50
2019-03-20T02:40:18.714Z,2.00
2019-03-20T02:41:18.733Z,1.50
2019-03-20T02:42:18.683Z,2.20
2019-03-20T02:43:18.678Z,1.80
2019-03-20T02:44:18.660Z,1.60
2019-03-20T02:45:18.651Z,2.00
2019-03-20T02:46:18.746Z,2.60
2019-03-20T02:47:18.641Z,1.60
2019-03-20T02:48:18.616Z,1.80
2019-03-20T02:49:18.628Z,1.80
2019-03-20T02:50:18.596Z,2.00
2019-03-20T02:51:18.587Z,1.80
2019-03-20T02:52:25.952Z,1.50
2019-03-20T02:53:18.559Z,2.30
2019-03-20T02:54:18.557Z,2.40
2019-03-20T02:55:18.533Z,2.20
2019-03-20T02:56:18.526Z,1.60
2019-03-20T02:57:18.514Z,2.00
2019-03-20T02:58:18.517Z,1.80
2019-03-20T02:59:18.501Z,2.00
2019-03-20T03:00:18.487Z,1.80
2019-03-20T03:01:18.477Z,1.50
2019-03-20T03:02:18.464Z,2.50
2019-03-20T03:03:18.460Z,2.00
2019-03-20T03:04:18.462Z,1.80
2019-03-20T03:05:18.436Z,1.80
2019-03-20T03:06:18.429Z,1.70
2019-03-20T03:07:18.416Z,2.00
2019-03-20T03:08:18.398Z,2.30
2019-03-20T03:09:18.390Z,1.50
2019-03-20T03:10:18.394Z,1.70
2019-03-20T03:11:18.439Z,2.30
2019-03-20T03:12:18.376Z,2.00
2019-03-20T03:13:18.350Z,2.00
2019-03-20T03:14:18.339Z,2.00
2019-03-20T03:15:18.328Z,1.70
2019-03-20T03:16:18.336Z,1.90
2019-03-20T03:17:18.306Z,1.90
2019-03-20T03:18:18.296Z,1.80
2019-03-20T03:19:18.296Z,1.80
2019-03-20T03:20:18.282Z,1.80
2019-03-20T03:21:18.264Z,1.60
2019-03-20T03:22:18.271Z,2.10
2019-03-20T03:23:18.246Z,2.10
2019-03-20T03:24:18.233Z,2.20
2019-03-20T03:25:18.227Z,2.10
2019-03-20T03:26:18.216Z,1.80
2019-03-20T03:27:18.209Z,1.90
2019-03-20T03:28:18.206Z,1.60
2019-03-20T03:29:18.184Z,1.80
2019-03-20T03:30:18.234Z,1.80
2019-03-20T03:31:18.164Z,1.90
2019-03-20T03:32:18.150Z,2.30
2019-03-20T03:33:18.140Z,2.10
2019-03-20T03:34:18.266Z,1.70
2019-03-20T03:35:19.902Z,2.00
2019-03-20T03:36:21.495Z,1.60
2019-03-20T03:37:18.099Z,1.90
2019-03-20T03:38:18.096Z,2.20
2019-03-20T03:39:18.075Z,1.90
2019-03-20T03:40:18.088Z,1.60
2019-03-20T03:41:18.056Z,1.90
2019-03-20T03:42:18.054Z,1.60
2019-03-20T03:43:18.037Z,1.70
2019-03-20T03:44:18.039Z,1.40
2019-03-20T03:45:18.021Z,1.60
2019-03-20T03:46:18.112Z,2.10
2019-03-20T03:47:17.994Z,1.60
2019-03-20T03:48:17.982Z,2.20
2019-03-20T03:49:17.975Z,2.10
2019-03-20T03:50:17.962Z,1.50
2019-03-20T03:51:17.948Z,2.10
2019-03-20T03:52:17.960Z,2.00
2019-03-20T03:53:17.942Z,2.10
2019-03-20T03:54:17.926Z,2.20
2019-03-20T03:55:17.912Z,1.70
2019-03-20T03:56:17.911Z,1.50
2019-03-20T03:57:17.891Z,1.70
2019-03-20T03:58:17.926Z,2.20
2019-03-20T03:59:17.870Z,2.40
2019-03-20T04:00:17.886Z,1.90
2019-03-20T04:01:17.853Z,1.90
2019-03-20T04:02:17.838Z,1.80
2019-03-20T04:03:17.893Z,1.90
2019-03-20T04:04:18.556Z,1.90
2019-03-20T04:05:17.820Z,1.50
2019-03-20T04:06:17.797Z,1.90
2019-03-20T04:07:17.785Z,1.70
2019-03-20T04:08:17.780Z,2.00
2019-03-20T04:09:17.770Z,2.40
2019-03-20T04:10:17.771Z,1.80
2019-03-20T04:11:17.745Z,1.80
2019-03-20T04:12:17.735Z,2.00
2019-03-20T04:13:17.722Z,1.80
2019-03-20T04:14:17.714Z,1.80
2019-03-20T04:15:17.759Z,2.10
2019-03-20T04:16:17.710Z,2.00
2019-03-20T04:17:17.682Z,2.40
2019-03-20T04:18:17.672Z,2.10
2019-03-20T04:19:17.662Z,2.30
2019-03-20T04:20:17.657Z,1.90
2019-03-20T04:21:17.644Z,1.70
2019-03-20T04:22:17.646Z,2.60
2019-03-20T04:23:17.624Z,2.40
2019-03-20T04:24:17.624Z,2.00
2019-03-20T04:25:17.601Z,2.40
2019-03-20T04:26:17.591Z,2.10
2019-03-20T04:27:17.579Z,1.60
2019-03-20T04:28:17.585Z,2.10
2019-03-20T04:29:17.559Z,1.80
2019-03-20T04:30:17.549Z,1.80
2019-03-20T04:31:17.542Z,1.90
2019-03-20T04:32:17.533Z,1.80
2019-03-20T04:33:17.517Z,2.70
2019-03-20T04:34:17.542Z,2.00
2019-03-20T04:35:17.499Z,2.00
2019-03-20T04:36:17.485Z,2.00
2019-03-20T04:37:17.475Z,2.10
2019-03-20T04:38:17.467Z,2.30
2019-03-20T04:39:17.462Z,2.40
2019-03-20T04:40:17.456Z,1.70
2019-03-20T04:41:17.433Z,1.90
2019-03-20T04:42:17.424Z,2.00
2019-03-20T04:43:17.412Z,2.20
2019-03-20T04:44:17.398Z,1.90
2019-03-20T04:45:17.397Z,1.90
2019-03-20T04:46:17.513Z,1.80
2019-03-20T04:47:17.370Z,2.00
2019-03-20T04:48:17.360Z,1.90
2019-03-20T04:49:17.350Z,2.20
2019-03-20T04:50:17.347Z,2.20
2019-03-20T04:51:17.328Z,2.00
2019-03-20T04:52:17.423Z,2.60
2019-03-20T04:53:17.306Z,1.60
2019-03-20T04:54:17.295Z,1.80
2019-03-20T04:55:17.287Z,1.80
2019-03-20T04:56:17.271Z,2.40
2019-03-20T04:57:17.265Z,2.10
2019-03-20T04:58:17.287Z,2.00
2019-03-20T04:59:17.245Z,2.60
2019-03-20T05:00:17.233Z,2.50
2019-03-20T05:01:17.223Z,2.20
2019-03-20T05:02:17.215Z,1.80
2019-03-20T05:03:17.205Z,2.40
2019-03-20T05:04:17.207Z,2.10
2019-03-20T05:05:17.182Z,1.70
2019-03-20T05:06:17.171Z,2.40
2019-03-20T05:07:17.162Z,2.30
2019-03-20T05:08:17.152Z,2.50
2019-03-20T05:09:17.141Z,2.50
2019-03-20T05:10:17.143Z,1.90
2019-03-20T05:11:17.120Z,2.20
2019-03-20T05:12:17.107Z,1.70
2019-03-20T05:13:17.101Z,2.20
2019-03-20T05:14:17.159Z,1.80
2019-03-20T05:15:17.080Z,2.40
2019-03-20T05:16:17.172Z,2.10
2019-03-20T05:17:17.059Z,2.10
2019-03-20T05:18:17.046Z,2.30
2019-03-20T05:19:17.037Z,1.90
2019-03-20T05:20:17.028Z,2.10
2019-03-20T05:21:17.017Z,2.90
2019-03-20T05:22:17.024Z,2.00
2019-03-20T05:23:16.992Z,2.10
2019-03-20T05:24:16.985Z,2.30
2019-03-20T05:25:16.972Z,1.80
2019-03-20T05:26:16.963Z,2.60
2019-03-20T05:27:16.951Z,2.40
2019-03-20T05:28:16.956Z,2.20
2019-03-20T05:29:16.934Z,2.00
2019-03-20T05:30:16.925Z,2.30
2019-03-20T05:31:16.911Z,3.10
2019-03-20T05:32:16.903Z,1.90
2019-03-20T05:33:16.892Z,2.20
2019-03-20T05:34:16.898Z,2.40
2019-03-20T05:35:16.878Z,2.60
2019-03-20T05:36:16.861Z,2.30
2019-03-20T05:37:16.855Z,2.00
2019-03-20T05:38:16.838Z,2.00
2019-03-20T05:39:16.828Z,2.20
2019-03-20T05:40:16.834Z,2.60
2019-03-20T05:41:16.811Z,1.80
2019-03-20T05:42:16.796Z,2.50
2019-03-20T05:43:16.788Z,2.00
2019-03-20T05:44:16.779Z,2.40
2019-03-20T05:45:16.770Z,2.40
2019-03-20T05:46:16.789Z,2.20
2019-03-20T05:47:16.747Z,2.40
2019-03-20T05:48:16.735Z,2.50
2019-03-20T05:49:16.725Z,2.30
2019-03-20T05:50:16.715Z,2.60
2019-03-20T05:51:16.702Z,2.10
2019-03-20T05:52:16.710Z,2.20
2019-03-20T05:53:16.683Z,2.60
2019-03-20T05:54:16.673Z,2.20
2019-03-20T05:55:16.673Z,2.70
2019-03-20T05:56:16.651Z,2.50
2019-03-20T05:57:16.642Z,2.30
2019-03-20T05:58:16.651Z,2.40
2019-03-20T05:59:16.619Z,2.10
2019-03-20T06:00:16.610Z,2.10
2019-03-20T06:01:16.600Z,2.40
2019-03-20T06:02:16.590Z,2.80
2019-03-20T06:03:16.582Z,2.40
2019-03-20T06:04:16.583Z,2.10
2019-03-20T06:05:16.562Z,2.50
2019-03-20T06:06:16.549Z,2.20
2019-03-20T06:07:21.545Z,2.20
2019-03-20T06:08:17.525Z,2.60
2019-03-20T06:09:16.516Z,1.80
2019-03-20T06:10:16.523Z,2.60
2019-03-20T06:11:16.497Z,2.00
2019-03-20T06:12:16.516Z,2.50
2019-03-20T06:13:16.475Z,2.30
2019-03-20T06:14:16.465Z,2.20
2019-03-20T06:15:16.455Z,2.00
2019-03-20T06:16:16.462Z,2.40
2019-03-20T06:17:16.436Z,3.20
2019-03-20T06:18:16.426Z,2.40
2019-03-20T06:19:16.414Z,3.00
2019-03-20T06:20:16.402Z,3.10
2019-03-20T06:21:16.391Z,3.70
2019-03-20T06:22:16.398Z,3.10
2019-03-20T06:23:16.373Z,3.80
2019-03-20T06:24:16.363Z,3.60
2019-03-20T06:25:16.379Z,3.80
2019-03-20T06:26:16.347Z,4.00
2019-03-20T06:27:16.330Z,4.60
2019-03-20T06:28:16.337Z,4.00
2019-03-20T06:29:16.310Z,4.60
2019-03-20T06:30:16.300Z,4.30
2019-03-20T06:31:18.761Z,4.00
2019-03-20T06:32:16.278Z,4.70
2019-03-20T06:33:16.268Z,4.00
2019-03-20T06:34:16.276Z,4.60
2019-03-20T06:35:16.245Z,4.90
2019-03-20T06:36:16.236Z,4.80
2019-03-20T06:37:16.233Z,5.10
2019-03-20T06:38:16.213Z,5.50
2019-03-20T06:39:16.204Z,5.40
2019-03-20T06:40:16.208Z,5.40
2019-03-20T06:41:16.185Z,5.60
2019-03-20T06:42:16.172Z,5.90
2019-03-20T06:43:16.164Z,5.30
2019-03-20T06:44:16.149Z,5.20
2019-03-20T06:45:16.141Z,4.40
2019-03-20T06:46:16.147Z,6.20
2019-03-20T06:47:16.121Z,4.90
2019-03-20T06:48:16.112Z,5.10
2019-03-20T06:49:16.099Z,5.20
2019-03-20T06:50:16.090Z,5.60
2019-03-20T06:51:16.077Z,5.30
2019-03-20T06:52:16.086Z,5.00
2019-03-20T06:53:16.061Z,5.10
2019-03-20T06:54:16.045Z,5.20
2019-03-20T06:55:16.035Z,6.00
2019-03-20T06:56:16.025Z,4.70
2019-03-20T06:57:16.012Z,4.60
2019-03-20T06:58:16.019Z,5.20
2019-03-20T06:59:15.995Z,4.60
2019-03-20T07:00:15.981Z,4.30
2019-03-20T07:01:15.970Z,4.60
2019-03-20T07:02:15.961Z,5.20
2019-03-20T07:03:15.949Z,3.90
2019-03-20T07:04:15.961Z,4.30
2019-03-20T07:05:15.929Z,4.30
2019-03-20T07:06:15.919Z,4.30
2019-03-20T07:07:15.907Z,4.20
2019-03-20T07:08:15.899Z,4.00
2019-03-20T07:09:15.885Z,3.60
2019-03-20T07:10:15.891Z,3.70
2019-03-20T07:11:15.865Z,3.80
2019-03-20T07:12:15.853Z,4.10
2019-03-20T07:13:15.846Z,4.50
2019-03-20T07:14:15.833Z,3.20
2019-03-20T07:15:15.824Z,3.10
2019-03-20T07:16:15.830Z,3.50
2019-03-20T07:17:15.990Z,3.40
2019-03-20T07:18:15.792Z,2.80
2019-03-20T07:19:15.781Z,3.20
2019-03-20T07:20:15.770Z,3.40
2019-03-20T07:21:15.759Z,3.30
2019-03-20T07:22:15.763Z,3.10
2019-03-20T07:23:15.739Z,2.90
2019-03-20T07:24:15.728Z,3.50
2019-03-20T07:25:15.718Z,2.80
2019-03-20T07:26:15.706Z,2.70
2019-03-20T07:27:15.697Z,2.80
2019-03-20T07:28:15.704Z,2.50
2019-03-20T07:29:15.674Z,2.80
2019-03-20T07:30:15.664Z,2.20
2019-03-20T07:31:16.043Z,2.50
2019-03-20T07:32:15.642Z,3.20
2019-03-20T07:33:15.632Z,2.70
2019-03-20T07:34:15.691Z,3.00
2019-03-20T07:35:15.609Z,2.40
2019-03-20T07:36:15.597Z,2.20
2019-03-20T07:37:15.587Z,2.40
2019-03-20T07:38:15.578Z,2.20
2019-03-20T07:39:15.572Z,2.20
2019-03-20T07:40:15.568Z,2.00
2019-03-20T07:41:15.543Z,2.00
2019-03-20T07:42:15.535Z,2.30
2019-03-20T07:43:15.524Z,2.00
2019-03-20T07:44:15.511Z,2.20
2019-03-20T07:45:15.502Z,2.00
2019-03-20T07:46:15.505Z,2.40
2019-03-20T07:47:15.479Z,2.30
2019-03-20T07:48:21.891Z,2.20
2019-03-20T07:49:16.457Z,2.10
2019-03-20T07:50:15.447Z,1.80
2019-03-20T07:51:15.438Z,2.00
2019-03-20T07:52:15.529Z,2.10
2019-03-20T07:53:15.419Z,2.20
2019-03-20T07:54:15.406Z,2.20
2019-03-20T07:55:15.393Z,2.10
2019-03-20T07:56:15.384Z,2.00
2019-03-20T07:57:15.374Z,2.40
2019-03-20T07:58:15.457Z,2.30
2019-03-20T07:59:15.352Z,3.00
2019-03-20T08:00:15.339Z,2.50
2019-03-20T08:01:15.331Z,2.50
2019-03-20T08:02:15.324Z,2.20
2019-03-20T08:03:15.310Z,1.80
2019-03-20T08:04:15.317Z,2.20
2019-03-20T08:05:15.288Z,2.20
2019-03-20T08:06:15.279Z,2.30
2019-03-20T08:07:15.265Z,1.90
2019-03-20T08:08:15.256Z,1.70
2019-03-20T08:09:15.258Z,2.20
2019-03-20T08:10:15.250Z,2.20
2019-03-20T08:11:15.225Z,2.50
2019-03-20T08:12:15.214Z,1.90
2019-03-20T08:13:15.202Z,1.70
2019-03-20T08:14:15.188Z,1.90
2019-03-20T08:15:15.179Z,1.50
2019-03-20T08:16:15.189Z,1.80
2019-03-20T08:17:15.282Z,2.30
2019-03-20T08:18:15.146Z,1.60
2019-03-20T08:19:15.137Z,2.70
2019-03-20T08:20:15.128Z,1.80
2019-03-20T08:21:15.115Z,2.30
2019-03-20T08:22:15.204Z,1.60
2019-03-20T08:23:15.095Z,1.60
2019-03-20T08:24:15.082Z,1.90
2019-03-20T08:25:15.073Z,1.70
2019-03-20T08:26:15.063Z,1.70
2019-03-20T08:27:15.050Z,1.50
2019-03-20T08:28:15.057Z,1.80
2019-03-20T08:29:15.031Z,2.10
2019-03-20T08:30:15.018Z,1.80
2019-03-20T08:31:15.008Z,1.70
2019-03-20T08:32:14.995Z,1.80
2019-03-20T08:33:15.052Z,1.70
2019-03-20T08:34:14.989Z,1.70
2019-03-20T08:35:14.963Z,1.50
2019-03-20T08:36:14.954Z,2.20
2019-03-20T08:37:14.944Z,2.00
2019-03-20T08:38:18.455Z,2.00
2019-03-20T08:39:14.920Z,1.50
2019-03-20T08:40:14.923Z,1.50
2019-03-20T08:41:14.897Z,1.60
2019-03-20T08:42:14.888Z,1.20
2019-03-20T08:43:14.878Z,1.40
2019-03-20T08:44:14.869Z,1.40
2019-03-20T08:45:14.856Z,1.60
2019-03-20T08:46:14.878Z,1.70
2019-03-20T08:47:14.836Z,1.80
2019-03-20T08:48:14.826Z,1.50
2019-03-20T08:49:14.811Z,1.60
2019-03-20T08:50:14.804Z,1.70
2019-03-20T08:51:14.791Z,2.10
2019-03-20T08:52:21.844Z,2.00
2019-03-20T08:53:14.777Z,2.10
2019-03-20T08:54:14.766Z,1.90
2019-03-20T08:55:14.750Z,1.50
2019-03-20T08:56:14.740Z,2.10
2019-03-20T08:57:14.734Z,2.10
2019-03-20T08:58:14.732Z,1.30
2019-03-20T08:59:14.715Z,1.40
2019-03-20T09:00:14.702Z,1.70
2019-03-20T09:01:14.692Z,2.10
2019-03-20T09:02:14.677Z,1.80
2019-03-20T09:03:14.660Z,2.10
2019-03-20T09:04:14.685Z,1.50
2019-03-20T09:05:14.643Z,1.60
2019-03-20T09:06:14.628Z,1.80
2019-03-20T09:07:14.620Z,1.50
2019-03-20T09:08:14.616Z,1.50
2019-03-20T09:09:14.605Z,1.40
2019-03-20T09:10:14.602Z,1.70
2019-03-20T09:11:14.574Z,1.60
2019-03-20T09:12:14.598Z,1.90
2019-03-20T09:13:14.561Z,1.40
2019-03-20T09:14:14.541Z,1.70
2019-03-20T09:15:14.531Z,1.90
2019-03-20T09:16:14.539Z,1.50
2019-03-20T09:17:14.509Z,1.40
2019-03-20T09:18:14.499Z,1.70
2019-03-20T09:19:14.489Z,1.90
2019-03-20T09:20:14.515Z,1.50
2019-03-20T09:21:14.467Z,1.50
2019-03-20T09:22:14.474Z,1.50
2019-03-20T09:23:14.444Z,1.80
2019-03-20T09:24:14.439Z,1.70
2019-03-20T09:25:14.422Z,1.50
2019-03-20T09:26:14.412Z,1.30
2019-03-20T09:27:14.406Z,1.70
2019-03-20T09:28:14.416Z,1.80
2019-03-20T09:29:18.481Z,1.50
2019-03-20T09:30:14.374Z,1.50
2019-03-20T09:31:14.358Z,1.50
2019-03-20T09:32:14.345Z,1.60
2019-03-20T09:33:14.339Z,1.60
2019-03-20T09:34:14.342Z,2.20
2019-03-20T09:35:14.316Z,1.90
2019-03-20T09:36:14.309Z,1.30
2019-03-20T09:37:14.293Z,1.50
2019-03-20T09:38:14.284Z,1.80
2019-03-20T09:39:14.275Z,1.80
2019-03-20T09:40:14.280Z,1.50
2019-03-20T09:41:14.252Z,1.40
2019-03-20T09:42:14.245Z,1.60
2019-03-20T09:43:14.232Z,2.00
2019-03-20T09:44:14.228Z,1.30
2019-03-20T09:45:14.215Z,1.40
2019-03-20T09:46:14.218Z,1.50
2019-03-20T09:47:14.191Z,1.70
2019-03-20T09:48:14.175Z,1.90
2019-03-20T09:49:14.166Z,2.00
2019-03-20T09:50:14.156Z,1.40
2019-03-20T09:51:14.157Z,1.70
2019-03-20T09:52:14.156Z,1.70
2019-03-20T09:53:14.130Z,1.50
2019-03-20T09:54:14.133Z,2.00
2019-03-20T09:55:14.098Z,1.80
2019-03-20T09:56:14.095Z,1.60
2019-03-20T09:57:14.082Z,1.50
2019-03-20T09:58:14.088Z,2.00
2019-03-20T09:59:14.062Z,1.60
2019-03-20T10:00:14.050Z,1.80
2019-03-20T10:01:14.043Z,2.10
2019-03-20T10:02:14.034Z,1.40
2019-03-20T10:03:14.025Z,1.50
2019-03-20T10:04:14.027Z,1.30
2019-03-20T10:05:13.999Z,1.30
2019-03-20T10:06:13.989Z,1.50
2019-03-20T10:07:13.983Z,1.90
2019-03-20T10:08:13.975Z,1.80
2019-03-20T10:09:13.963Z,1.50
2019-03-20T10:10:13.972Z,1.30
2019-03-20T10:11:13.941Z,1.60
2019-03-20T10:12:13.935Z,1.50
2019-03-20T10:13:13.928Z,1.40
2019-03-20T10:14:13.917Z,1.60
2019-03-20T10:15:13.917Z,1.40
2019-03-20T10:16:13.996Z,1.30
2019-03-20T10:17:13.881Z,1.60
2019-03-20T10:18:13.873Z,1.40
2019-03-20T10:19:13.862Z,1.00
2019-03-20T10:20:13.849Z,1.20
2019-03-20T10:21:13.843Z,1.10
2019-03-20T10:22:13.850Z,1.50
2019-03-20T10:23:13.818Z,1.20
2019-03-20T10:24:13.811Z,2.00
2019-03-20T10:25:13.798Z,1.10
2019-03-20T10:26:13.790Z,1.10
2019-03-20T10:27:13.776Z,0.90
2019-03-20T10:28:13.781Z,1.40
2019-03-20T10:29:13.760Z,1.20
2019-03-20T10:30:13.745Z,1.10
2019-03-20T10:31:13.734Z,1.30
2019-03-20T10:32:13.725Z,1.50
2019-03-20T10:33:13.712Z,1.30
2019-03-20T10:34:13.723Z,1.60
2019-03-20T10:35:13.693Z,1.60
2019-03-20T10:36:13.685Z,1.50
2019-03-20T10:37:13.670Z,1.30
2019-03-20T10:38:13.659Z,1.50
2019-03-20T10:39:13.720Z,1.50
2019-03-20T10:40:13.652Z,1.50
2019-03-20T10:41:13.629Z,1.50
2019-03-20T10:42:13.617Z,1.90
2019-03-20T10:43:13.607Z,1.80
2019-03-20T10:44:13.626Z,1.80
2019-03-20T10:45:13.585Z,1.80
2019-03-20T10:46:13.587Z,1.90
2019-03-20T10:47:13.559Z,1.40
2019-03-20T10:48:13.556Z,1.30
2019-03-20T10:49:13.537Z,1.50
2019-03-20T10:50:13.549Z,1.70
2019-03-20T10:51:13.524Z,1.70
2019-03-20T10:52:13.524Z,1.50
2019-03-20T10:53:13.499Z,1.60
2019-03-20T10:54:13.486Z,1.50
2019-03-20T10:55:13.480Z,1.80
2019-03-20T10:56:13.467Z,1.90
2019-03-20T10:57:13.467Z,1.40
2019-03-20T10:58:13.460Z,2.00
2019-03-20T10:59:13.441Z,1.60
2019-03-20T11:00:13.428Z,1.20
2019-03-20T11:01:13.409Z,1.80
2019-03-20T11:02:13.414Z,1.50
2019-03-20T11:03:13.406Z,1.40
2019-03-20T11:04:13.399Z,1.80
2019-03-20T11:05:13.375Z,1.60
2019-03-20T11:06:13.380Z,1.60
2019-03-20T11:07:13.403Z,1.40
2019-03-20T11:08:13.345Z,1.60
2019-03-20T11:09:18.253Z,1.70
2019-03-20T11:10:14.329Z,1.70
2019-03-20T11:11:13.300Z,1.40
2019-03-20T11:12:13.304Z,1.50
2019-03-20T11:13:13.285Z,1.60
2019-03-20T11:14:13.271Z,1.50
2019-03-20T11:15:13.258Z,1.90
2019-03-20T11:16:13.265Z,2.10
2019-03-20T11:17:13.242Z,1.40
2019-03-20T11:18:13.227Z,1.80
2019-03-20T11:19:13.237Z,1.50
2019-03-20T11:20:13.211Z,1.10
2019-03-20T11:21:13.194Z,1.70
2019-03-20T11:22:18.534Z,1.60
2019-03-20T11:23:14.176Z,1.20
2019-03-20T11:24:15.208Z,1.40
2019-03-20T11:25:13.154Z,1.90
2019-03-20T11:26:13.140Z,1.40
2019-03-20T11:27:13.134Z,2.10
2019-03-20T11:28:13.149Z,1.70
2019-03-20T11:29:13.109Z,1.50
2019-03-20T11:30:13.103Z,1.70
2019-03-20T11:31:13.093Z,1.70
2019-03-20T11:32:14.352Z,1.40
2019-03-20T11:33:13.071Z,1.50
2019-03-20T11:34:13.067Z,1.40
2019-03-20T11:35:13.048Z,1.80
2019-03-20T11:36:13.036Z,1.40
2019-03-20T11:37:13.024Z,1.40
2019-03-20T11:38:13.013Z,1.40
2019-03-20T11:39:13.006Z,1.30
2019-03-20T11:40:13.026Z,1.80
2019-03-20T11:41:12.988Z,1.40
2019-03-20T11:42:12.972Z,1.60
2019-03-20T11:43:12.963Z,2.00
2019-03-20T11:44:12.953Z,1.60
2019-03-20T11:45:12.943Z,1.20
2019-03-20T11:46:12.968Z,1.40
2019-03-20T11:47:12.918Z,1.50
2019-03-20T11:48:12.911Z,1.70
2019-03-20T11:49:12.899Z,1.50
2019-03-20T11:50:12.886Z,1.40
2019-03-20T11:51:12.879Z,2.30
2019-03-20T11:52:12.902Z,1.60
2019-03-20T11:53:12.857Z,0.90
2019-03-20T11:54:12.854Z,1.50
2019-03-20T11:55:12.866Z,1.90
2019-03-20T11:56:12.827Z,2.30
2019-03-20T11:57:12.809Z,1.20
2019-03-20T11:58:12.822Z,1.40
2019-03-20T11:59:12.791Z,1.70
2019-03-20T12:00:12.781Z,1.50
2019-03-20T12:01:12.768Z,1.60
2019-03-20T12:02:12.761Z,1.40
2019-03-20T12:03:12.748Z,1.70
2019-03-20T12:04:12.765Z,2.10
2019-03-20T12:05:12.726Z,1.70
2019-03-20T12:06:12.715Z,1.70
2019-03-20T12:07:12.730Z,1.20
2019-03-20T12:08:12.695Z,1.40
2019-03-20T12:09:12.686Z,1.30
2019-03-20T12:10:12.702Z,1.40
2019-03-20T12:11:12.661Z,1.40
2019-03-20T12:12:12.654Z,1.60
2019-03-20T12:13:12.638Z,1.80
2019-03-20T12:14:12.629Z,1.80
2019-03-20T12:15:12.622Z,1.40
2019-03-20T12:16:12.622Z,1.60
2019-03-20T12:17:12.599Z,1.90
2019-03-20T12:18:12.590Z,1.70
2019-03-20T12:19:12.574Z,1.30
2019-03-20T12:20:12.568Z,1.20
2019-03-20T12:21:12.561Z,1.50
2019-03-20T12:22:12.558Z,1.50
2019-03-20T12:23:12.532Z,1.60
2019-03-20T12:24:12.526Z,1.60
2019-03-20T12:25:12.516Z,1.40
2019-03-20T12:26:12.499Z,1.30
2019-03-20T12:27:15.289Z,1.60
2019-03-20T12:28:12.499Z,1.40
2019-03-20T12:29:12.472Z,1.20
2019-03-20T12:30:12.460Z,1.70
2019-03-20T12:31:12.450Z,1.90
2019-03-20T12:32:12.438Z,1.70
2019-03-20T12:33:12.430Z,1.60
2019-03-20T12:34:12.435Z,1.50
2019-03-20T12:35:12.409Z,1.40
2019-03-20T12:36:12.393Z,1.50
2019-03-20T12:37:12.384Z,1.30
2019-03-20T12:38:14.646Z,1.60
2019-03-20T12:39:12.364Z,1.50
2019-03-20T12:40:12.368Z,1.60
2019-03-20T12:41:12.342Z,1.50
2019-03-20T12:42:12.335Z,1.30
2019-03-20T12:43:12.320Z,1.20
2019-03-20T12:44:12.310Z,1.30
2019-03-20T12:45:12.302Z,1.50
2019-03-20T12:46:12.299Z,1.30
2019-03-20T12:47:12.280Z,1.70
2019-03-20T12:48:12.267Z,1.70
2019-03-20T12:49:12.258Z,1.50
2019-03-20T12:50:12.243Z,1.30
2019-03-20T12:51:12.242Z,1.50
2019-03-20T12:52:12.260Z,1.60
2019-03-20T12:53:12.210Z,1.40
2019-03-20T12:54:12.201Z,1.90
2019-03-20T12:55:12.184Z,1.70
2019-03-20T12:56:12.189Z,1.30
2019-03-20T12:57:12.178Z,1.40
2019-03-20T12:58:12.261Z,1.50
2019-03-20T12:59:12.146Z,1.40
2019-03-20T13:00:12.211Z,1.50
2019-03-20T13:01:12.127Z,1.30
2019-03-20T13:02:12.123Z,1.50
2019-03-20T13:04:12.133Z,1.60
2019-03-20T13:05:12.081Z,1.70
2019-03-20T13:06:12.097Z,1.80
2019-03-20T13:07:12.058Z,1.60
2019-03-20T13:08:12.052Z,1.80
2019-03-20T13:09:12.036Z,1.70
2019-03-20T13:10:12.065Z,1.80
2019-03-20T13:11:12.020Z,1.60
2019-03-20T13:12:12.005Z,1.80
2019-03-20T13:13:12.071Z,2.00
2019-03-20T13:14:11.984Z,1.50
2019-03-20T13:15:11.975Z,1.30
2019-03-20T13:16:11.978Z,1.50
2019-03-20T13:17:11.956Z,2.50
2019-03-20T13:18:11.940Z,1.10
2019-03-20T13:19:11.937Z,1.60